Time;durP1;ratioP1;P1;durP2;ratioP2;P2;SDS_P1;SDS_P2;PMS_P1;PMS_P2;Temp;Humidity;BMP_temperature;BMP_pressure;BME280_temperature;BME280_humidity;BME280_pressure;Samples;Min_cycle;Max_cycle;Signal;HPM_P1;HPM_P2
2023/09/29 00:00:16;;;;;;;5.97;3.80;;;23.50;51.60;;;;;;4989685;28;20591;-48
2023/09/29 00:02:42;;;;;;;5.37;3.30;;;23.50;51.60;;;;;;4989353;28;20445;-46
2023/09/29 00:05:09;;;;;;;5.07;4.17;;;23.60;51.50;;;;;;4988401;28;20438;-47
2023/09/29 00:07:35;;;;;;;6.40;4.37;;;23.60;51.60;;;;;;4992094;28;20473;-46
2023/09/29 00:10:01;;;;;;;4.70;3.90;;;23.50;51.50;;;;;;5002467;28;20460;-47
2023/09/29 00:12:27;;;;;;;4.60;4.20;;;23.50;51.60;;;;;;4994383;28;20434;-45
2023/09/29 00:14:52;;;;;;;5.60;4.07;;;23.50;51.50;;;;;;4989104;28;20549;-45
2023/09/29 00:17:18;;;;;;;7.17;4.37;;;23.50;51.50;;;;;;4989825;28;20205;-50
2023/09/29 00:19:44;;;;;;;5.27;4.10;;;23.50;51.40;;;;;;4988768;28;20261;-48
2023/09/29 00:22:09;;;;;;;4.20;3.67;;;23.50;51.30;;;;;;4988585;28;20190;-47
2023/09/29 00:24:35;;;;;;;5.53;3.50;;;23.50;51.20;;;;;;4993646;28;20221;-46
2023/09/29 00:27:01;;;;;;;4.93;4.17;;;23.50;51.20;;;;;;4989206;28;20626;-47
2023/09/29 00:29:26;;;;;;;5.13;4.00;;;23.50;51.20;;;;;;4988535;28;20660;-48
2023/09/29 00:31:52;;;;;;;7.70;3.77;;;23.50;51.20;;;;;;4999836;28;20198;-46
2023/09/29 00:34:18;;;;;;;3.70;3.43;;;23.40;51.40;;;;;;5002839;28;20593;-49
2023/09/29 00:36:47;;;;;;;5.03;3.60;;;23.40;51.40;;;;;;4999295;28;20190;-47
2023/09/29 00:39:13;;;;;;;6.93;3.53;;;23.30;51.40;;;;;;4992931;28;20238;-46
2023/09/29 00:41:40;;;;;;;4.53;3.53;;;23.30;51.50;;;;;;4989757;28;20953;-47
2023/09/29 00:44:06;;;;;;;3.70;3.40;;;23.20;51.50;;;;;;4989279;28;20461;-45
2023/09/29 00:46:32;;;;;;;6.93;3.87;;;23.10;51.80;;;;;;4988593;28;20461;-52
2023/09/29 00:48:59;;;;;;;5.00;3.23;;;23.10;52.00;;;;;;4988825;28;20438;-45
2023/09/29 00:51:25;;;;;;;3.43;3.13;;;23.00;52.20;;;;;;4989351;28;20886;-45
2023/09/29 00:53:51;;;;;;;4.03;3.63;;;22.70;52.80;;;;;;4994464;28;20472;-45
2023/09/29 00:56:17;;;;;;;4.50;3.67;;;22.70;52.90;;;;;;5005249;28;20261;-45
2023/09/29 00:58:43;;;;;;;4.30;3.87;;;22.80;52.80;;;;;;4998860;28;20516;-45
2023/09/29 01:01:11;;;;;;;5.63;4.27;;;22.90;52.40;;;;;;4999706;28;20190;-47
2023/09/29 01:03:37;;;;;;;11.53;3.67;;;23.00;52.30;;;;;;5006379;28;20225;-45
2023/09/29 01:06:06;;;;;;;5.83;3.87;;;23.10;52.30;;;;;;4989673;28;20975;-48
2023/09/29 01:08:32;;;;;;;6.83;4.40;;;23.10;52.30;;;;;;4987049;28;20207;-45
2023/09/29 01:10:57;;;;;;;4.70;3.50;;;22.30;53.80;;;;;;4990613;28;22605;-46
2023/09/29 01:13:23;;;;;;;5.20;4.17;;;22.20;54.50;;;;;;4989753;28;20261;-45
2023/09/29 01:15:49;;;;;;;5.30;4.00;;;22.30;54.50;;;;;;4987760;28;20320;-46
2023/09/29 01:18:19;;;;;;;4.20;3.77;;;22.50;54.30;;;;;;4986690;28;20233;-46
2023/09/29 01:20:45;;;;;;;3.43;3.13;;;22.30;54.10;;;;;;4986587;28;20807;-46
2023/09/29 01:23:10;;;;;;;3.40;3.10;;;22.50;54.10;;;;;;4986314;28;20445;-46
2023/09/29 01:25:37;;;;;;;4.17;3.00;;;22.50;53.40;;;;;;4989108;28;20203;-47
2023/09/29 01:28:13;;;;;;;6.07;3.90;;;22.60;53.80;;;;;;4984831;28;20206;-46
2023/09/29 01:30:43;;;;;;;5.17;3.97;;;22.70;53.30;;;;;;4986192;28;21018;-48
2023/09/29 01:33:08;;;;;;;6.83;3.70;;;22.90;53.10;;;;;;4986992;28;21011;-49
2023/09/29 01:35:34;;;;;;;4.27;3.60;;;22.90;52.50;;;;;;4990796;28;20446;-46
2023/09/29 01:38:00;;;;;;;4.00;3.60;;;22.80;53.10;;;;;;4999668;28;20252;-45
2023/09/29 01:40:26;;;;;;;4.27;3.87;;;22.70;53.10;;;;;;4995471;28;20226;-48
2023/09/29 01:42:52;;;;;;;4.80;4.00;;;22.70;53.10;;;;;;4987436;28;20242;-47
2023/09/29 01:45:19;;;;;;;4.90;3.40;;;22.80;53.20;;;;;;4987299;28;20536;-46
2023/09/29 01:47:49;;;;;;;3.67;3.37;;;22.90;53.00;;;;;;4991527;28;20465;-45
2023/09/29 01:50:17;;;;;;;4.60;3.20;;;23.00;52.90;;;;;;4994765;28;20529;-48
2023/09/29 01:52:46;;;;;;;7.13;3.70;;;23.00;52.50;;;;;;4989177;28;20499;-47
2023/09/29 01:55:19;;;;;;;4.00;3.57;;;23.00;52.60;;;;;;4985912;28;20452;-47
2023/09/29 01:57:49;;;;;;;6.73;3.23;;;23.00;52.40;;;;;;4998294;28;20441;-48
2023/09/29 02:00:19;;;;;;;3.77;3.40;;;22.90;52.60;;;;;;4994527;28;20489;-45
2023/09/29 02:02:47;;;;;;;6.00;3.80;;;22.90;52.80;;;;;;4989151;28;21188;-47
2023/09/29 02:05:16;;;;;;;9.60;4.13;;;23.00;52.50;;;;;;4989907;28;20975;-46
2023/09/29 02:07:45;;;;;;;3.67;3.37;;;23.00;52.20;;;;;;4993181;28;20446;-46
2023/09/29 02:10:11;;;;;;;4.27;3.53;;;23.00;52.20;;;;;;5000393;28;20429;-45
2023/09/29 02:12:46;;;;;;;5.30;3.13;;;22.80;52.40;;;;;;5005973;28;20429;-49
2023/09/29 02:15:15;;;;;;;5.00;3.70;;;22.90;52.40;;;;;;4996945;28;20465;-49
2023/09/29 02:17:41;;;;;;;4.50;3.83;;;22.90;52.30;;;;;;4988148;28;20893;-48
2023/09/29 02:20:15;;;;;;;4.90;3.90;;;22.90;52.10;;;;;;4986939;28;20583;-45
2023/09/29 02:22:41;;;;;;;5.23;3.87;;;23.00;52.00;;;;;;4986487;28;20519;-46
2023/09/29 02:25:12;;;;;;;5.30;3.87;;;23.00;51.70;;;;;;4987401;28;20492;-46
2023/09/29 02:27:37;;;;;;;5.50;3.27;;;23.00;51.60;;;;;;4986921;28;20449;-49
2023/09/29 02:30:04;;;;;;;4.40;3.50;;;23.00;51.40;;;;;;4989477;28;20483;-45
2023/09/29 02:32:30;;;;;;;4.27;3.20;;;23.00;51.70;;;;;;4990006;28;20771;-48
2023/09/29 02:34:55;;;;;;;4.53;3.33;;;23.00;51.60;;;;;;4993185;28;20452;-48
2023/09/29 02:37:21;;;;;;;4.60;3.87;;;23.00;51.40;;;;;;4986739;28;20330;-45
2023/09/29 02:39:47;;;;;;;4.67;3.97;;;23.00;51.50;;;;;;4987926;28;20247;-45
2023/09/29 02:42:13;;;;;;;3.73;3.43;;;22.80;51.50;;;;;;4986896;28;20196;-45
2023/09/29 02:44:39;;;;;;;5.37;3.70;;;22.80;51.70;;;;;;4987722;28;20209;-46
2023/09/29 02:47:05;;;;;;;4.50;4.10;;;22.70;51.90;;;;;;4987726;28;20244;-46
2023/09/29 02:49:33;;;;;;;4.37;3.53;;;22.50;52.30;;;;;;4986434;28;20524;-48
2023/09/29 02:51:59;;;;;;;5.60;3.83;;;22.00;52.70;;;;;;4986309;28;20198;-46
2023/09/29 02:54:25;;;;;;;6.77;4.37;;;21.70;54.10;;;;;;4986439;28;21008;-45
2023/09/29 02:56:51;;;;;;;4.20;3.80;;;21.70;54.20;;;;;;4986528;28;20517;-45
2023/09/29 02:59:16;;;;;;;7.23;4.00;;;21.80;53.90;;;;;;4985814;28;21200;-47
2023/09/29 03:01:44;;;;;;;3.87;3.53;;;21.60;54.10;;;;;;4987155;28;20666;-45
2023/09/29 03:04:10;;;;;;;4.43;4.03;;;21.60;54.20;;;;;;4985017;28;20226;-51
2023/09/29 03:06:35;;;;;;;3.93;3.63;;;21.50;54.30;;;;;;4991546;28;20488;-46
2023/09/29 03:09:01;;;;;;;4.40;4.00;;;21.50;54.30;;;;;;4992060;28;20199;-50
2023/09/29 03:11:27;;;;;;;4.60;4.13;;;21.50;54.40;;;;;;4992198;28;20600;-45
2023/09/29 03:13:55;;;;;;;3.87;3.57;;;21.60;54.20;;;;;;4986006;28;20195;-45
2023/09/29 03:16:24;;;;;;;4.53;4.13;;;21.60;54.40;;;;;;4992531;28;20195;-46
2023/09/29 03:18:50;;;;;;;6.43;3.90;;;21.50;54.60;;;;;;4983833;28;20497;-45
2023/09/29 03:21:16;;;;;;;5.00;3.67;;;21.30;54.90;;;;;;4988910;28;20446;-45
2023/09/29 03:23:43;;;;;;;5.00;3.37;;;21.10;55.30;;;;;;4987202;28;20526;-45
2023/09/29 03:26:09;;;;;;;4.77;3.27;;;21.20;55.50;;;;;;4988925;28;20452;-45
2023/09/29 03:28:35;;;;;;;5.10;4.70;;;21.10;55.50;;;;;;4986405;28;20454;-47
2023/09/29 03:31:06;;;;;;;4.30;3.57;;;21.20;55.40;;;;;;4989088;28;20519;-47
2023/09/29 03:33:32;;;;;;;4.90;3.80;;;21.30;55.10;;;;;;4992792;28;20441;-46
2023/09/29 03:35:58;;;;;;;4.43;3.50;;;21.40;54.80;;;;;;4989975;28;20824;-47
2023/09/29 03:38:25;;;;;;;3.87;3.43;;;21.40;54.90;;;;;;4993297;28;20441;-49
2023/09/29 03:40:52;;;;;;;4.23;3.63;;;21.20;55.20;;;;;;4990914;28;20199;-45
2023/09/29 03:43:18;;;;;;;4.17;3.83;;;21.10;55.60;;;;;;4988213;28;20463;-45
2023/09/29 03:45:46;;;;;;;4.00;3.70;;;20.90;55.70;;;;;;4990314;28;20438;-45
2023/09/29 03:48:12;;;;;;;4.37;3.97;;;21.10;55.80;;;;;;4997458;28;20502;-45
2023/09/29 03:50:39;;;;;;;4.00;3.70;;;21.20;55.20;;;;;;4990456;28;20949;-45
2023/09/29 03:53:05;;;;;;;5.87;3.63;;;21.30;54.90;;;;;;4991373;28;20317;-45
2023/09/29 03:55:31;;;;;;;4.37;3.97;;;21.40;54.60;;;;;;4993097;28;21431;-48
2023/09/29 03:57:57;;;;;;;7.70;3.80;;;21.40;54.60;;;;;;4989889;28;20499;-45
2023/09/29 04:00:22;;;;;;;4.63;3.60;;;21.50;54.40;;;;;;4989625;28;20218;-47
2023/09/29 04:02:51;;;;;;;4.37;3.97;;;21.20;55.10;;;;;;4989086;28;20191;-45
2023/09/29 04:05:18;;;;;;;5.27;4.20;;;21.30;54.90;;;;;;4990457;28;20198;-47
2023/09/29 04:07:43;;;;;;;3.90;3.60;;;21.40;54.60;;;;;;4997050;28;20444;-46
2023/09/29 04:10:14;;;;;;;4.40;4.00;;;21.60;54.40;;;;;;4997292;28;20885;-50
2023/09/29 04:12:42;;;;;;;4.30;3.90;;;21.60;53.80;;;;;;4989811;28;20201;-45
2023/09/29 04:15:08;;;;;;;4.10;3.80;;;21.70;53.60;;;;;;5003457;28;20441;-46
2023/09/29 04:17:35;;;;;;;4.40;4.00;;;21.80;53.60;;;;;;4994014;28;20473;-45
2023/09/29 04:20:02;;;;;;;4.93;4.40;;;21.80;53.40;;;;;;5007192;28;20485;-46
2023/09/29 04:22:28;;;;;;;4.97;3.90;;;21.80;53.40;;;;;;4994793;28;20526;-45
2023/09/29 04:24:53;;;;;;;6.90;4.40;;;21.80;53.30;;;;;;4994070;28;21121;-46
2023/09/29 04:27:19;;;;;;;4.50;4.10;;;21.80;53.20;;;;;;4990756;28;20457;-48
2023/09/29 04:29:44;;;;;;;4.73;3.67;;;21.80;53.20;;;;;;4997509;28;20229;-49
2023/09/29 04:32:10;;;;;;;8.53;4.30;;;21.80;53.20;;;;;;5007234;28;20657;-46
2023/09/29 04:34:36;;;;;;;5.60;4.00;;;21.70;53.20;;;;;;4995038;28;20233;-48
2023/09/29 04:37:01;;;;;;;4.63;3.93;;;21.70;53.20;;;;;;4995409;28;20230;-51
2023/09/29 04:39:27;;;;;;;4.50;4.10;;;21.70;53.20;;;;;;4995624;28;20487;-51
2023/09/29 04:41:52;;;;;;;6.50;4.83;;;21.70;53.80;;;;;;4996231;28;20221;-49
2023/09/29 04:44:18;;;;;;;4.10;3.80;;;21.70;53.50;;;;;;4994802;28;20194;-49
2023/09/29 04:46:44;;;;;;;4.77;4.30;;;21.30;54.20;;;;;;4994386;28;20216;-45
2023/09/29 04:49:10;;;;;;;5.10;4.60;;;21.20;54.60;;;;;;4993224;28;20190;-46
2023/09/29 04:51:36;;;;;;;6.07;4.13;;;21.20;54.70;;;;;;4987309;28;20551;-50
2023/09/29 04:54:03;;;;;;;6.60;4.53;;;21.30;54.60;;;;;;4993707;28;20437;-45
2023/09/29 04:56:28;;;;;;;4.17;3.77;;;21.40;54.40;;;;;;4993505;28;20500;-48
2023/09/29 04:58:54;;;;;;;7.60;4.40;;;21.50;54.20;;;;;;4989026;28;20507;-51
2023/09/29 05:01:20;;;;;;;6.30;4.87;;;21.40;54.30;;;;;;4988119;28;20894;-49
2023/09/29 05:03:51;;;;;;;5.57;4.70;;;21.20;54.70;;;;;;5001810;28;20277;-47
2023/09/29 05:06:17;;;;;;;6.93;4.30;;;21.00;55.30;;;;;;4986125;28;20450;-46
2023/09/29 05:08:44;;;;;;;5.03;4.30;;;20.90;55.40;;;;;;4987821;28;20441;-47
2023/09/29 05:11:19;;;;;;;6.23;4.97;;;20.90;55.50;;;;;;4987399;28;20496;-47
2023/09/29 05:13:45;;;;;;;4.93;4.00;;;20.80;55.80;;;;;;5000228;28;20448;-50
2023/09/29 05:16:11;;;;;;;7.80;3.83;;;20.80;55.90;;;;;;4987503;28;20438;-48
2023/09/29 05:18:36;;;;;;;9.33;4.83;;;20.40;56.40;;;;;;4988429;28;20218;-47
2023/09/29 05:21:02;;;;;;;7.43;4.43;;;20.00;57.20;;;;;;4988799;28;20202;-45
2023/09/29 05:23:27;;;;;;;6.57;4.63;;;19.80;58.30;;;;;;4990603;28;20195;-46
2023/09/29 05:25:53;;;;;;;5.13;4.13;;;20.10;58.10;;;;;;4997294;28;20199;-46
2023/09/29 05:28:18;;;;;;;6.10;4.30;;;20.20;57.30;;;;;;4990601;28;20195;-45
2023/09/29 05:30:53;;;;;;;4.60;4.17;;;20.20;57.30;;;;;;5004734;28;20198;-45
2023/09/29 05:33:19;;;;;;;6.80;4.00;;;20.40;57.00;;;;;;4996441;28;20255;-46
2023/09/29 05:35:46;;;;;;;4.63;3.90;;;20.50;56.60;;;;;;4987363;28;20987;-47
2023/09/29 05:38:11;;;;;;;5.50;4.23;;;20.70;56.20;;;;;;4985825;28;20195;-48
2023/09/29 05:40:38;;;;;;;4.20;3.80;;;20.90;55.70;;;;;;4977880;28;20497;-46
2023/09/29 05:43:04;;;;;;;8.50;4.53;;;21.00;55.40;;;;;;4982072;28;20226;-45
2023/09/29 05:45:30;;;;;;;7.23;4.30;;;21.00;55.50;;;;;;4982787;28;20516;-46
2023/09/29 05:47:56;;;;;;;4.37;3.90;;;20.90;55.60;;;;;;4980468;28;20905;-45
2023/09/29 05:50:21;;;;;;;9.70;4.50;;;21.00;55.60;;;;;;4986739;28;20202;-45
2023/09/29 05:52:47;;;;;;;6.47;4.50;;;21.10;55.40;;;;;;4974560;28;20455;-49
2023/09/29 05:55:13;;;;;;;6.17;4.10;;;21.10;55.20;;;;;;4990855;28;20208;-49
2023/09/29 05:57:39;;;;;;;7.63;4.43;;;21.20;55.20;;;;;;4991077;28;20450;-45
2023/09/29 06:00:06;;;;;;;6.40;4.47;;;21.10;55.50;;;;;;4984988;28;20227;-50
2023/09/29 06:02:31;;;;;;;7.40;3.80;;;21.00;55.70;;;;;;4983258;28;20208;-47
2023/09/29 06:04:57;;;;;;;6.90;4.00;;;21.00;55.80;;;;;;4990262;28;20439;-45
2023/09/29 06:07:23;;;;;;;4.27;3.87;;;21.00;55.70;;;;;;4982084;28;20913;-45
2023/09/29 06:09:48;;;;;;;5.80;4.17;;;20.90;55.80;;;;;;4998440;28;20236;-47
2023/09/29 06:12:14;;;;;;;5.63;3.93;;;20.70;56.40;;;;;;4993822;28;20540;-46
2023/09/29 06:14:39;;;;;;;5.10;4.17;;;20.60;56.90;;;;;;5001657;28;20198;-48
2023/09/29 06:17:05;;;;;;;6.10;4.30;;;20.60;56.90;;;;;;4997483;28;20225;-47
2023/09/29 06:19:31;;;;;;;5.10;4.60;;;20.50;57.40;;;;;;4993681;28;20221;-45
2023/09/29 06:21:56;;;;;;;12.47;5.13;;;20.70;57.20;;;;;;4994390;28;20561;-46
2023/09/29 06:24:22;;;;;;;10.23;5.47;;;20.80;56.80;;;;;;4999207;28;20198;-45
2023/09/29 06:26:47;;;;;;;5.30;4.30;;;21.10;56.40;;;;;;5001067;28;20213;-48
2023/09/29 06:29:13;;;;;;;7.53;4.57;;;21.30;55.80;;;;;;4982480;28;20252;-47
2023/09/29 06:31:38;;;;;;;6.30;4.43;;;21.50;55.20;;;;;;4990321;28;20190;-47
2023/09/29 06:34:04;;;;;;;4.60;3.80;;;21.70;55.00;;;;;;4984956;28;20564;-47
2023/09/29 06:36:30;;;;;;;8.87;4.43;;;21.50;55.20;;;;;;4999640;28;20200;-45
2023/09/29 06:38:56;;;;;;;4.37;3.97;;;21.50;55.30;;;;;;4993266;28;20279;-46
2023/09/29 06:41:23;;;;;;;7.10;4.60;;;21.70;55.30;;;;;;4987240;28;20191;-46
2023/09/29 06:43:49;;;;;;;4.50;4.10;;;21.70;55.20;;;;;;4991192;28;20972;-47
2023/09/29 06:46:15;;;;;;;4.83;4.00;;;21.70;55.00;;;;;;4990555;28;20479;-46
2023/09/29 06:48:42;;;;;;;4.17;3.67;;;21.80;54.90;;;;;;4994038;28;20478;-45
2023/09/29 06:51:07;;;;;;;4.20;3.80;;;21.80;54.50;;;;;;4986880;28;20201;-45
2023/09/29 06:53:33;;;;;;;5.37;3.83;;;21.90;54.50;;;;;;4986009;28;20774;-47
2023/09/29 06:55:59;;;;;;;8.70;3.83;;;21.80;54.70;;;;;;4987469;28;20238;-45
2023/09/29 06:58:25;;;;;;;4.93;3.93;;;21.90;54.60;;;;;;4989999;28;20684;-48
2023/09/29 07:00:51;;;;;;;4.63;3.37;;;22.00;54.30;;;;;;4984534;28;20562;-46
2023/09/29 07:03:18;;;;;;;4.67;3.73;;;22.20;53.90;;;;;;4981485;28;20454;-46
2023/09/29 07:05:46;;;;;;;6.20;3.80;;;22.20;53.80;;;;;;4999584;28;20443;-47
2023/09/29 07:08:15;;;;;;;4.47;3.87;;;22.10;53.70;;;;;;4997997;28;20551;-46
2023/09/29 07:10:42;;;;;;;8.00;4.77;;;22.20;53.70;;;;;;4994071;28;20874;-50
2023/09/29 07:13:07;;;;;;;8.80;3.70;;;22.30;53.60;;;;;;4992143;28;20544;-48
2023/09/29 07:15:33;;;;;;;4.57;4.07;;;22.30;53.40;;;;;;5002140;28;20524;-47
2023/09/29 07:17:58;;;;;;;4.83;4.43;;;22.30;53.70;;;;;;4993141;28;20222;-45
2023/09/29 07:20:24;;;;;;;5.43;4.27;;;22.40;53.50;;;;;;4984033;28;20229;-45
2023/09/29 07:22:51;;;;;;;4.57;3.73;;;22.50;53.50;;;;;;4987961;28;20230;-47
2023/09/29 07:25:18;;;;;;;5.03;4.53;;;22.50;53.50;;;;;;4991532;28;21247;-47
2023/09/29 07:27:44;;;;;;;4.93;3.70;;;22.40;53.70;;;;;;4990401;28;20449;-45
2023/09/29 07:30:10;;;;;;;5.97;4.10;;;22.40;54.10;;;;;;4998040;28;20488;-45
2023/09/29 07:32:39;;;;;;;5.40;4.33;;;22.40;53.90;;;;;;4989006;28;21072;-46
2023/09/29 07:35:07;;;;;;;4.93;3.50;;;22.30;53.90;;;;;;4992830;28;20871;-47
2023/09/29 07:37:33;;;;;;;5.70;4.70;;;22.40;53.60;;;;;;4988726;28;20533;-45
2023/09/29 07:39:59;;;;;;;5.83;3.73;;;22.60;53.50;;;;;;4987299;28;20501;-46
2023/09/29 07:42:24;;;;;;;4.50;4.00;;;22.60;53.40;;;;;;4990488;28;20508;-46
2023/09/29 07:44:50;;;;;;;6.90;4.00;;;22.70;53.00;;;;;;4988593;28;20581;-48
2023/09/29 07:47:15;;;;;;;6.63;3.47;;;22.70;53.20;;;;;;4991154;28;20203;-46
2023/09/29 07:49:41;;;;;;;6.83;3.50;;;22.60;53.10;;;;;;4990030;28;20205;-47
2023/09/29 07:52:07;;;;;;;8.27;3.97;;;22.80;53.10;;;;;;4995123;28;20204;-48
2023/09/29 07:54:36;;;;;;;5.50;3.80;;;22.90;52.80;;;;;;4987516;28;20187;-45
2023/09/29 07:57:02;;;;;;;4.07;3.63;;;23.00;53.00;;;;;;4993021;28;20954;-46
2023/09/29 07:59:28;;;;;;;7.57;3.53;;;23.10;52.70;;;;;;4990612;28;20544;-45
2023/09/29 08:01:54;;;;;;;5.27;3.70;;;23.20;52.50;;;;;;4984698;28;20302;-46
2023/09/29 08:04:19;;;;;;;5.23;3.80;;;23.40;52.30;;;;;;4991039;28;20448;-45
2023/09/29 08:06:45;;;;;;;5.20;4.47;;;23.50;52.10;;;;;;4986012;28;20508;-46
2023/09/29 08:09:12;;;;;;;5.13;4.63;;;23.40;51.50;;;;;;4989229;28;20310;-48
2023/09/29 08:11:40;;;;;;;3.93;3.40;;;23.50;51.80;;;;;;4986160;28;20199;-49
2023/09/29 08:14:06;;;;;;;4.63;3.90;;;23.60;51.50;;;;;;5000084;28;20455;-46
2023/09/29 08:16:32;;;;;;;4.30;3.90;;;23.60;51.90;;;;;;4996618;28;20812;-47
2023/09/29 08:18:57;;;;;;;6.40;3.77;;;23.70;51.70;;;;;;4990600;28;20230;-48
2023/09/29 08:21:23;;;;;;;4.47;4.07;;;23.90;51.70;;;;;;4985076;28;20201;-49
2023/09/29 08:23:48;;;;;;;5.30;3.73;;;24.10;51.70;;;;;;4990291;28;20194;-48
2023/09/29 08:26:14;;;;;;;4.87;3.83;;;24.00;50.20;;;;;;4995532;28;20194;-46
2023/09/29 08:28:40;;;;;;;4.77;3.87;;;24.20;50.50;;;;;;4994137;28;20191;-47
2023/09/29 08:31:15;;;;;;;3.67;3.37;;;24.20;49.80;;;;;;4991146;28;20197;-46
2023/09/29 08:33:41;;;;;;;5.60;4.03;;;24.40;49.40;;;;;;4986867;28;20218;-46
2023/09/29 08:36:07;;;;;;;6.70;4.47;;;24.50;49.60;;;;;;4990239;28;20806;-46
2023/09/29 08:38:33;;;;;;;5.47;4.10;;;24.70;49.10;;;;;;4990048;28;20473;-47
2023/09/29 08:41:06;;;;;;;4.80;4.30;;;24.80;49.10;;;;;;4987984;28;20210;-45
2023/09/29 08:43:33;;;;;;;4.73;4.30;;;24.70;49.10;;;;;;4986086;28;20576;-45
2023/09/29 08:45:59;;;;;;;5.30;3.67;;;24.60;48.90;;;;;;4988614;28;20473;-48
2023/09/29 08:48:27;;;;;;;7.07;3.80;;;24.80;48.60;;;;;;4990367;28;20904;-46
2023/09/29 08:50:57;;;;;;;5.30;4.00;;;24.80;48.50;;;;;;4990160;28;20461;-45
2023/09/29 08:53:25;;;;;;;5.00;4.50;;;25.00;47.40;;;;;;4988330;28;20535;-48
2023/09/29 08:55:54;;;;;;;5.93;3.90;;;25.30;47.50;;;;;;4994338;28;20523;-47
2023/09/29 08:58:21;;;;;;;4.27;3.87;;;25.60;47.10;;;;;;4988743;28;20434;-46
2023/09/29 09:00:48;;;;;;;6.17;3.70;;;26.00;46.80;;;;;;4991816;28;20508;-46
2023/09/29 09:03:14;;;;;;;5.00;4.13;;;26.20;45.90;;;;;;4984615;28;20453;-47
2023/09/29 09:05:40;;;;;;;5.90;3.90;;;26.40;44.80;;;;;;4988115;28;20449;-47
2023/09/29 09:08:06;;;;;;;3.67;3.27;;;26.30;45.60;;;;;;4994680;28;20457;-49
2023/09/29 09:10:34;;;;;;;4.80;3.83;;;26.50;45.30;;;;;;4995871;28;20258;-49
2023/09/29 09:13:00;;;;;;;3.90;3.50;;;26.80;45.10;;;;;;4998193;28;20195;-49
2023/09/29 09:15:26;;;;;;;7.63;3.87;;;27.00;43.50;;;;;;4995524;28;20442;-45
2023/09/29 09:17:52;;;;;;;4.23;3.03;;;27.10;43.20;;;;;;5000916;28;20560;-49
2023/09/29 09:20:18;;;;;;;5.07;4.57;;;27.10;43.20;;;;;;4988801;28;20501;-48
2023/09/29 09:22:56;;;;;;;7.67;4.80;;;27.10;43.60;;;;;;4991857;28;20537;-46
2023/09/29 09:25:35;;;;;;;9.40;4.83;;;27.00;44.50;;;;;;4994027;28;20480;-46
2023/09/29 09:28:01;;;;;;;6.07;3.93;;;27.10;44.30;;;;;;4988330;28;20449;-48
2023/09/29 09:30:27;;;;;;;3.80;3.40;;;27.00;44.30;;;;;;4993320;28;20449;-48
2023/09/29 09:32:53;;;;;;;9.23;4.47;;;27.00;43.90;;;;;;4983024;28;20457;-47
2023/09/29 09:35:29;;;;;;;8.10;4.00;;;27.30;44.00;;;;;;4990039;28;20261;-49
2023/09/29 09:37:56;;;;;;;11.10;4.30;;;27.80;43.70;;;;;;4992197;28;20252;-51
2023/09/29 09:40:26;;;;;;;5.53;3.93;;;28.10;42.10;;;;;;4985222;28;20511;-47
2023/09/29 09:42:53;;;;;;;5.03;3.70;;;28.50;42.30;;;;;;4984371;28;20446;-47
2023/09/29 09:45:25;;;;;;;4.07;3.70;;;28.80;41.00;;;;;;4989073;28;20545;-50
2023/09/29 09:47:59;;;;;;;3.50;3.20;;;29.00;40.20;;;;;;4993668;28;20960;-50
2023/09/29 09:50:30;;;;;;;6.30;3.63;;;29.30;39.30;;;;;;4998173;28;20436;-46
2023/09/29 09:52:59;;;;;;;3.50;3.10;;;29.30;39.60;;;;;;4995396;28;20442;-48
2023/09/29 09:55:33;;;;;;;3.57;3.27;;;29.50;39.30;;;;;;4999326;28;20438;-45
2023/09/29 09:58:01;;;;;;;4.43;4.03;;;29.70;39.00;;;;;;4987050;28;20437;-48
2023/09/29 10:00:27;;;;;;;6.67;4.23;;;30.00;39.00;;;;;;4985501;28;20874;-50
2023/09/29 10:02:56;;;;;;;6.97;4.27;;;30.00;38.60;;;;;;4990408;28;20442;-47
2023/09/29 10:05:24;;;;;;;7.00;3.87;;;29.80;38.80;;;;;;4990010;28;20704;-46
2023/09/29 10:08:01;;;;;;;6.30;4.20;;;30.00;38.80;;;;;;4991706;28;20457;-47
2023/09/29 10:10:31;;;;;;;8.50;3.90;;;30.00;38.20;;;;;;4992716;28;20441;-48
2023/09/29 10:13:01;;;;;;;6.57;4.00;;;29.80;38.60;;;;;;4994590;28;20441;-47
2023/09/29 10:15:30;;;;;;;4.70;4.20;;;29.70;39.20;;;;;;4992774;28;20458;-48
2023/09/29 10:17:58;;;;;;;5.47;4.00;;;29.80;40.10;;;;;;4996033;28;20560;-47
2023/09/29 10:20:33;;;;;;;5.60;3.50;;;29.60;39.90;;;;;;4991753;28;20520;-46
2023/09/29 10:23:17;;;;;;;6.57;3.87;;;29.60;40.20;;;;;;4997122;28;20445;-48
2023/09/29 10:25:54;;;;;;;5.17;3.70;;;29.90;40.10;;;;;;4986108;28;20468;-45
2023/09/29 10:28:30;;;;;;;7.83;4.30;;;30.00;40.00;;;;;;4989777;28;20937;-50
2023/09/29 10:31:06;;;;;;;6.73;3.87;;;30.10;40.00;;;;;;4995388;28;20473;-49
2023/09/29 10:33:32;;;;;;;4.37;3.70;;;30.10;39.90;;;;;;4988482;28;20453;-49
2023/09/29 10:35:58;;;;;;;6.13;3.90;;;30.30;40.20;;;;;;4986283;28;21007;-47
2023/09/29 10:38:29;;;;;;;7.63;4.40;;;30.40;40.50;;;;;;4988905;28;20194;-50
2023/09/29 10:40:55;;;;;;;3.70;3.40;;;30.70;40.00;;;;;;4994953;28;20281;-49
2023/09/29 10:43:23;;;;;;;9.10;4.40;;;30.80;38.80;;;;;;4999997;28;20517;-47
2023/09/29 10:45:50;;;;;;;5.97;3.90;;;30.90;38.60;;;;;;4990584;28;20218;-49
2023/09/29 10:48:19;;;;;;;4.20;3.77;;;31.00;38.40;;;;;;4987401;28;20462;-49
2023/09/29 10:50:49;;;;;;;5.93;3.73;;;31.00;38.80;;;;;;4991826;28;20437;-46
2023/09/29 10:53:15;;;;;;;3.97;3.13;;;31.20;38.90;;;;;;4994934;28;20539;-46
2023/09/29 10:55:43;;;;;;;5.73;3.70;;;31.20;38.20;;;;;;4998757;28;20494;-47
2023/09/29 10:58:11;;;;;;;5.37;3.83;;;31.40;38.10;;;;;;4992421;28;20499;-47
2023/09/29 11:00:50;;;;;;;4.20;3.67;;;31.50;37.80;;;;;;4982438;28;20496;-51
2023/09/29 11:03:22;;;;;;;4.27;3.87;;;31.70;37.90;;;;;;4991047;28;20546;-47
2023/09/29 11:05:50;;;;;;;3.60;3.30;;;31.90;38.00;;;;;;4999150;28;20532;-46
2023/09/29 11:08:19;;;;;;;5.87;3.90;;;32.10;38.00;;;;;;4995899;28;20446;-50
2023/09/29 11:11:02;;;;;;;4.00;3.70;;;32.30;37.00;;;;;;4997262;28;20833;-48
2023/09/29 11:13:29;;;;;;;3.37;3.17;;;32.40;36.40;;;;;;4991066;28;20477;-46
2023/09/29 11:15:56;;;;;;;4.70;3.33;;;32.50;35.70;;;;;;4993361;28;21057;-46
2023/09/29 11:18:34;;;;;;;5.83;3.80;;;32.50;35.70;;;;;;4989598;28;20544;-48
2023/09/29 11:21:09;;;;;;;5.03;3.00;;;32.60;35.20;;;;;;4999872;28;20453;-48
2023/09/29 11:23:48;;;;;;;5.80;3.50;;;32.30;34.80;;;;;;4988302;28;20449;-45
2023/09/29 11:26:15;;;;;;;3.30;2.97;;;32.30;35.40;;;;;;4994397;28;20441;-46
2023/09/29 11:28:47;;;;;;;7.63;3.40;;;32.40;35.40;;;;;;4995516;28;20473;-45
2023/09/29 11:31:15;;;;;;;14.37;4.10;;;32.40;35.50;;;;;;4994855;28;20808;-48
2023/09/29 11:33:42;;;;;;;12.20;3.60;;;32.60;35.60;;;;;;4995571;28;20446;-49
2023/09/29 11:36:18;;;;;;;5.03;3.17;;;32.70;35.40;;;;;;4988052;28;20457;-47
2023/09/29 11:38:45;;;;;;;5.40;4.10;;;32.40;35.40;;;;;;4986623;28;20441;-46
2023/09/29 11:41:11;;;;;;;8.30;4.27;;;32.20;35.90;;;;;;4994214;28;20524;-46
2023/09/29 11:43:40;;;;;;;6.57;3.37;;;32.10;36.10;;;;;;5000550;28;20418;-48
2023/09/29 11:46:06;;;;;;;6.37;3.60;;;32.10;36.20;;;;;;4989516;28;20468;-48
2023/09/29 11:48:31;;;;;;;4.93;3.53;;;32.40;36.70;;;;;;4988463;28;20512;-50
2023/09/29 11:50:57;;;;;;;5.13;4.10;;;32.20;36.20;;;;;;5004541;28;20458;-47
2023/09/29 11:53:23;;;;;;;3.60;3.10;;;32.20;36.30;;;;;;5004259;28;20753;-46
2023/09/29 11:55:49;;;;;;;7.03;3.43;;;32.30;36.70;;;;;;4996480;28;20253;-46
2023/09/29 11:58:15;;;;;;;5.43;3.70;;;32.20;37.10;;;;;;4990962;28;20571;-47
2023/09/29 12:00:41;;;;;;;4.00;3.70;;;32.30;36.80;;;;;;4990796;28;20233;-49
2023/09/29 12:03:11;;;;;;;4.40;4.00;;;32.30;36.80;;;;;;4994481;28;20449;-47
2023/09/29 12:05:36;;;;;;;3.77;3.40;;;32.50;37.30;;;;;;4983184;28;20461;-46
2023/09/29 12:08:03;;;;;;;6.70;3.90;;;32.70;36.70;;;;;;5003165;28;20930;-46
2023/09/29 12:10:30;;;;;;;7.60;3.63;;;32.80;36.80;;;;;;5001239;28;20186;-48
2023/09/29 12:12:56;;;;;;;7.70;4.40;;;32.60;36.70;;;;;;5003280;28;20495;-46
2023/09/29 12:15:22;;;;;;;5.50;3.70;;;32.60;36.40;;;;;;4998064;28;20496;-49
2023/09/29 12:17:48;;;;;;;6.90;3.60;;;32.60;36.40;;;;;;5004231;28;20194;-49
2023/09/29 12:20:14;;;;;;;4.40;3.23;;;32.70;37.10;;;;;;5001845;28;20233;-49
2023/09/29 12:22:45;;;;;;;6.47;3.97;;;32.90;37.10;;;;;;5010612;28;20433;-48
2023/09/29 12:25:14;;;;;;;5.73;4.00;;;33.10;36.60;;;;;;4982807;28;20979;-49
2023/09/29 12:27:42;;;;;;;3.83;3.53;;;33.20;36.20;;;;;;4994337;28;20437;-48
2023/09/29 12:30:08;;;;;;;4.37;3.90;;;33.20;36.50;;;;;;5008611;28;20490;-48
2023/09/29 12:32:35;;;;;;;3.57;3.27;;;33.40;36.40;;;;;;5000016;28;20439;-50
2023/09/29 12:35:01;;;;;;;3.73;3.20;;;33.50;35.30;;;;;;5009998;28;20432;-48
2023/09/29 12:37:26;;;;;;;3.63;3.00;;;33.50;34.00;;;;;;4992792;28;20513;-49
2023/09/29 12:39:53;;;;;;;3.33;3.10;;;33.60;34.20;;;;;;5006876;28;20276;-51
2023/09/29 12:42:19;;;;;;;3.50;3.20;;;33.70;34.20;;;;;;5002744;28;20193;-48
2023/09/29 12:44:47;;;;;;;10.27;3.70;;;33.50;34.20;;;;;;4990853;28;20437;-48